Time;durP1;ratioP1;P1;durP2;ratioP2;P2;SDS_P1;SDS_P2;PMS_P1;PMS_P2;Temp;Humidity;BMP_temperature;BMP_pressure;BME280_temperature;BME280_humidity;BME280_pressure;Samples;Min_cycle;Max_cycle;Signal;HPM_P1;HPM_P2
2021/03/04 00:01:38;;;;;;;35.67;17.77;;;23.80;34.50;;;;;;5089935;28;20036;-79
2021/03/04 00:04:03;;;;;;;33.58;19.02;;;23.80;34.50;;;;;;5082641;28;20543;-78
2021/03/04 00:06:29;;;;;;;37.72;21.45;;;23.80;34.60;;;;;;5089648;28;20028;-78
2021/03/04 00:08:55;;;;;;;35.75;20.33;;;23.70;34.50;;;;;;5089614;28;20039;-77
2021/03/04 00:11:20;;;;;;;33.53;19.25;;;23.70;34.50;;;;;;5090516;28;20157;-77
2021/03/04 00:13:46;;;;;;;30.35;18.02;;;23.70;34.60;;;;;;5085820;28;20035;-78
2021/03/04 00:16:11;;;;;;;38.35;19.67;;;23.70;34.60;;;;;;5082557;28;20020;-78
2021/03/04 00:18:37;;;;;;;33.00;20.33;;;23.70;34.60;;;;;;5074045;28;20036;-78
2021/03/04 00:21:03;;;;;;;37.33;20.17;;;23.70;34.60;;;;;;5090812;28;20020;-79
2021/03/04 00:23:28;;;;;;;29.20;17.80;;;23.70;34.60;;;;;;5092129;28;20023;-79
2021/03/04 00:25:54;;;;;;;42.42;21.17;;;23.60;34.70;;;;;;5066631;28;20126;-79
2021/03/04 00:28:19;;;;;;;36.92;20.35;;;23.60;34.70;;;;;;5094002;28;20043;-79
2021/03/04 00:30:45;;;;;;;25.10;17.20;;;23.60;34.70;;;;;;5093140;28;20579;-79
2021/03/04 00:33:10;;;;;;;29.25;17.52;;;23.60;34.70;;;;;;5089255;28;20048;-79
2021/03/04 00:35:36;;;;;;;37.83;19.38;;;23.60;34.80;;;;;;5092860;28;20430;-79
2021/03/04 00:38:02;;;;;;;32.08;19.50;;;23.60;34.70;;;;;;5090905;28;20068;-79
2021/03/04 00:40:28;;;;;;;35.05;19.42;;;23.60;34.80;;;;;;5091362;28;20063;-79
2021/03/04 00:42:53;;;;;;;39.10;19.02;;;23.50;34.80;;;;;;5085295;28;20086;-79
2021/03/04 00:45:21;;;;;;;29.00;16.88;;;23.50;34.80;;;;;;5090660;28;20030;-78
2021/03/04 00:47:46;;;;;;;41.40;20.83;;;23.50;34.80;;;;;;5087773;28;20114;-81
2021/03/04 00:51:08;;;;;;;33.55;19.92;;;23.50;34.80;;;;;;5091413;28;20098;-81
2021/03/04 00:53:34;;;;;;;35.88;20.83;;;23.50;34.80;;;;;;5092658;28;20080;-82
2021/03/04 00:55:59;;;;;;;36.78;20.98;;;23.40;34.90;;;;;;5090830;28;20646;-82
2021/03/04 00:58:40;;;;;;;33.85;20.15;;;23.40;34.90;;;;;;5091441;28;20076;-82
2021/03/04 01:01:06;;;;;;;33.83;20.33;;;23.40;34.90;;;;;;5090769;28;20058;-82
2021/03/04 01:03:31;;;;;;;38.00;19.60;;;23.40;35.00;;;;;;5069779;28;20059;-82
2021/03/04 01:05:57;;;;;;;36.63;20.83;;;23.40;35.00;;;;;;5092801;28;20031;-78
2021/03/04 01:08:23;;;;;;;39.22;21.10;;;23.40;35.00;;;;;;5091360;28;20044;-78
2021/03/04 01:10:48;;;;;;;32.97;20.33;;;23.40;35.70;;;;;;5091784;28;20095;-78
2021/03/04 01:13:14;;;;;;;35.15;20.85;;;23.40;35.10;;;;;;5083273;28;20032;-78
2021/03/04 01:15:39;;;;;;;34.85;21.20;;;23.40;35.10;;;;;;5082339;28;20423;-78
2021/03/04 01:18:05;;;;;;;37.13;20.85;;;23.40;35.10;;;;;;5087748;28;20055;-78
2021/03/04 01:20:31;;;;;;;38.65;20.67;;;23.40;35.10;;;;;;5092733;28;20035;-78
2021/03/04 01:22:57;;;;;;;36.75;20.45;;;23.40;35.10;;;;;;5089693;28;20043;-78
2021/03/04 01:25:23;;;;;;;33.95;20.15;;;23.30;35.10;;;;;;5071398;28;20036;-79
2021/03/04 01:27:49;;;;;;;39.55;19.77;;;23.30;35.20;;;;;;5081006;28;20051;-78
2021/03/04 01:30:27;;;;;;;33.83;19.40;;;23.30;35.20;;;;;;5091454;28;20020;-82
2021/03/04 01:32:53;;;;;;;33.42;20.55;;;23.30;35.20;;;;;;5086477;28;20032;-83
2021/03/04 01:35:18;;;;;;;34.60;21.00;;;23.30;35.20;;;;;;5091694;28;20035;-83
2021/03/04 01:37:44;;;;;;;35.35;20.45;;;23.30;35.10;;;;;;5092328;28;20023;-83
2021/03/04 01:40:22;;;;;;;35.95;20.80;;;23.30;35.10;;;;;;5087742;28;20058;-82
2021/03/04 01:42:50;;;;;;;35.63;21.27;;;23.30;35.20;;;;;;5088453;28;20034;-83
2021/03/04 01:45:16;;;;;;;36.65;22.10;;;23.30;35.10;;;;;;5081382;28;20028;-79
2021/03/04 01:47:53;;;;;;;36.55;20.42;;;23.30;35.10;;;;;;5084885;28;20518;-80
2021/03/04 01:50:19;;;;;;;30.52;17.90;;;23.30;35.20;;;;;;5090728;28;20024;-81
2021/03/04 01:52:45;;;;;;;38.17;22.65;;;23.30;35.20;;;;;;5086464;28;20379;-82
2021/03/04 01:55:11;;;;;;;39.00;22.98;;;23.30;35.10;;;;;;5087774;28;20024;-82
2021/03/04 01:57:37;;;;;;;32.28;20.23;;;23.30;35.10;;;;;;5084872;28;20509;-81
2021/03/04 02:00:06;;;;;;;44.38;23.60;;;23.30;35.20;;;;;;5090702;28;20040;-81
2021/03/04 02:02:31;;;;;;;38.50;22.40;;;23.30;35.20;;;;;;5083424;28;20027;-81
2021/03/04 02:04:57;;;;;;;35.83;23.08;;;23.30;35.20;;;;;;5089966;28;20040;-81
2021/03/04 02:07:29;;;;;;;41.80;24.40;;;23.30;35.30;;;;;;5086759;28;20027;-78
2021/03/04 02:10:01;;;;;;;49.22;24.20;;;23.30;35.20;;;;;;5090313;28;20032;-78
2021/03/04 02:13:02;;;;;;;39.75;24.25;;;23.30;35.30;;;;;;5088176;28;20031;-78
2021/03/04 02:15:37;;;;;;;36.97;21.63;;;23.20;35.30;;;;;;5072639;28;20460;-78
2021/03/04 02:18:05;;;;;;;40.05;22.73;;;23.20;35.30;;;;;;5071282;28;20016;-78
2021/03/04 02:20:35;;;;;;;47.50;24.85;;;23.20;35.30;;;;;;5090352;28;20162;-78
2021/03/04 02:23:05;;;;;;;41.92;23.52;;;23.20;35.30;;;;;;5086893;28;20503;-78
2021/03/04 02:25:52;;;;;;;40.65;22.92;;;23.20;36.00;;;;;;5076904;28;20113;-78
2021/03/04 02:28:18;;;;;;;39.65;21.42;;;23.20;35.40;;;;;;5082147;28;20024;-81
2021/03/04 02:30:43;;;;;;;35.67;21.42;;;23.20;35.30;;;;;;5086960;28;20044;-80
2021/03/04 02:33:14;;;;;;;40.95;23.10;;;23.20;35.40;;;;;;5082393;28;20092;-80
2021/03/04 02:35:40;;;;;;;39.13;22.73;;;23.20;35.40;;;;;;5089266;28;20478;-80
2021/03/04 02:38:07;;;;;;;31.35;18.98;;;23.20;35.40;;;;;;5083895;28;20024;-80
2021/03/04 02:40:33;;;;;;;41.92;24.15;;;23.20;35.40;;;;;;5089405;28;20056;-80
2021/03/04 02:42:58;;;;;;;39.78;21.80;;;23.20;35.40;;;;;;5088546;28;20063;-80
2021/03/04 02:45:27;;;;;;;37.88;21.15;;;23.20;35.40;;;;;;5065434;28;20024;-80
2021/03/04 02:47:53;;;;;;;37.47;22.55;;;23.20;35.50;;;;;;5083975;28;20039;-82
2021/03/04 02:50:19;;;;;;;31.10;21.58;;;23.10;35.40;;;;;;5089942;28;20028;-82
2021/03/04 02:52:45;;;;;;;34.50;21.45;;;23.10;36.10;;;;;;5089907;28;20054;-81
2021/03/04 02:55:11;;;;;;;36.58;20.52;;;23.20;35.50;;;;;;5071611;28;20032;-82
2021/03/04 02:57:39;;;;;;;32.13;20.45;;;23.10;35.50;;;;;;5083597;28;20016;-81
2021/03/04 03:00:09;;;;;;;33.70;20.90;;;23.10;35.50;;;;;;5088654;28;20024;-81
2021/03/04 03:02:35;;;;;;;30.17;19.90;;;23.10;35.50;;;;;;5090526;28;20389;-82
2021/03/04 03:05:00;;;;;;;32.25;20.02;;;23.10;35.60;;;;;;5088945;28;20035;-82
2021/03/04 03:07:26;;;;;;;33.42;21.40;;;23.10;35.60;;;;;;5069688;28;20488;-83
2021/03/04 03:09:51;;;;;;;27.45;18.70;;;23.10;35.60;;;;;;5086245;28;20489;-83
2021/03/04 03:12:17;;;;;;;31.77;19.88;;;23.10;35.60;;;;;;5086507;28;20031;-82
2021/03/04 03:14:43;;;;;;;33.05;21.02;;;23.00;35.60;;;;;;5081825;28;20075;-82
2021/03/04 03:17:09;;;;;;;28.45;18.42;;;23.00;35.60;;;;;;5064269;28;20020;-82
2021/03/04 03:19:34;;;;;;;34.85;20.40;;;23.00;35.70;;;;;;5087346;28;20353;-78
2021/03/04 03:22:00;;;;;;;37.05;19.92;;;23.00;35.70;;;;;;5090387;28;20017;-79
2021/03/04 03:24:26;;;;;;;36.40;20.98;;;23.00;35.70;;;;;;5088158;28;20051;-78
2021/03/04 03:26:51;;;;;;;33.65;20.52;;;23.00;35.70;;;;;;5084434;28;20036;-78
2021/03/04 03:29:17;;;;;;;33.15;20.35;;;23.00;35.80;;;;;;5072091;28;20115;-76
2021/03/04 03:31:48;;;;;;;30.45;19.90;;;23.00;35.80;;;;;;5090517;28;20119;-77
2021/03/04 03:34:13;;;;;;;30.50;18.52;;;23.00;35.80;;;;;;5071239;28;20515;-76
2021/03/04 03:36:39;;;;;;;27.48;17.63;;;23.00;35.80;;;;;;5091602;28;20024;-77
2021/03/04 03:39:06;;;;;;;29.55;17.92;;;23.00;35.80;;;;;;5087401;28;20037;-76
2021/03/04 03:41:33;;;;;;;27.20;15.77;;;23.00;35.80;;;;;;5071713;28;20036;-75
2021/03/04 03:43:58;;;;;;;27.95;16.65;;;23.00;35.80;;;;;;5083754;28;20487;-76
2021/03/04 03:46:24;;;;;;;28.50;15.50;;;23.00;35.70;;;;;;5078356;28;20031;-76
2021/03/04 03:48:49;;;;;;;25.77;12.77;;;23.00;35.70;;;;;;5087749;28;20045;-76
2021/03/04 03:51:15;;;;;;;17.65;10.63;;;23.00;35.80;;;;;;5071032;28;20028;-76
2021/03/04 03:53:40;;;;;;;20.42;9.90;;;23.00;35.80;;;;;;5088484;28;20036;-76
2021/03/04 03:56:06;;;;;;;14.82;8.73;;;23.00;35.70;;;;;;5081443;28;20031;-76
2021/03/04 03:58:38;;;;;;;13.20;8.00;;;23.00;35.80;;;;;;5071587;28;20124;-76
2021/03/04 04:01:03;;;;;;;15.05;8.43;;;23.00;35.80;;;;;;5089492;28;20044;-75
2021/03/04 04:03:29;;;;;;;12.48;7.68;;;23.00;35.80;;;;;;5088311;28;20133;-76
2021/03/04 04:05:55;;;;;;;15.85;7.72;;;23.00;35.80;;;;;;5087903;28;20024;-76
2021/03/04 04:08:23;;;;;;;14.23;7.97;;;23.00;35.80;;;;;;5087291;28;20450;-75
2021/03/04 04:10:49;;;;;;;11.98;7.43;;;23.00;35.80;;;;;;5088735;28;20073;-76
2021/03/04 04:13:15;;;;;;;10.90;6.78;;;23.00;35.80;;;;;;5080996;28;20407;-76
2021/03/04 04:15:40;;;;;;;12.82;7.43;;;23.00;35.90;;;;;;5076089;28;20036;-76
2021/03/04 04:18:06;;;;;;;14.52;7.70;;;23.00;35.90;;;;;;5050453;28;20090;-76
2021/03/04 04:20:32;;;;;;;11.98;6.95;;;23.00;35.90;;;;;;5070352;28;20077;-76
2021/03/04 04:22:57;;;;;;;14.38;7.70;;;23.00;35.90;;;;;;5092130;28;20538;-76
2021/03/04 04:25:24;;;;;;;15.95;7.57;;;23.00;35.90;;;;;;5092780;28;20028;-76
2021/03/04 04:27:53;;;;;;;14.20;7.05;;;23.00;35.70;;;;;;5067961;28;20453;-79
2021/03/04 04:30:19;;;;;;;14.07;7.28;;;22.90;36.00;;;;;;5091894;28;20032;-78
2021/03/04 04:32:45;;;;;;;14.40;7.40;;;23.00;36.00;;;;;;5091813;28;20142;-78
2021/03/04 04:35:13;;;;;;;10.43;6.80;;;23.00;36.00;;;;;;5093580;28;20443;-78
2021/03/04 04:37:38;;;;;;;15.50;7.10;;;22.90;36.00;;;;;;5092838;28;20040;-78
2021/03/04 04:40:05;;;;;;;14.30;7.03;;;22.90;36.00;;;;;;5091231;28;20027;-76
2021/03/04 04:42:30;;;;;;;12.30;6.95;;;22.90;36.00;;;;;;5090914;28;20028;-76
2021/03/04 04:45:04;;;;;;;11.95;6.28;;;22.90;36.10;;;;;;5093308;28;20119;-77
2021/03/04 04:47:30;;;;;;;14.50;6.75;;;22.90;36.20;;;;;;5089982;28;20510;-78
2021/03/04 04:49:55;;;;;;;11.82;6.95;;;22.90;36.20;;;;;;5074115;28;20028;-79
2021/03/04 04:52:21;;;;;;;13.93;7.45;;;22.90;36.10;;;;;;5093344;28;20536;-77
2021/03/04 04:54:46;;;;;;;16.67;7.93;;;22.90;36.20;;;;;;5093231;28;20040;-78
2021/03/04 04:57:27;;;;;;;14.70;7.75;;;22.90;36.20;;;;;;5093254;28;20024;-78
2021/03/04 04:59:53;;;;;;;15.85;7.22;;;22.90;36.20;;;;;;5089242;28;20569;-78
2021/03/04 05:02:19;;;;;;;0.93;0.85;;;22.80;36.20;;;;;;5091187;28;20028;-79
2021/03/04 05:04:44;;;;;;;1.42;0.55;;;22.80;36.20;;;;;;5093680;28;20077;-79
2021/03/04 05:07:10;;;;;;;3.08;0.82;;;22.80;36.30;;;;;;5092149;28;20039;-79
2021/03/04 05:09:35;;;;;;;1.08;0.73;;;22.80;36.60;;;;;;5092137;28;20028;-79
2021/03/04 05:12:01;;;;;;;2.15;0.80;;;22.90;36.70;;;;;;5093079;28;20020;-79
2021/03/04 05:14:26;;;;;;;0.40;0.40;;;22.90;36.70;;;;;;5092146;28;20028;-79
2021/03/04 05:16:52;;;;;;;2.05;1.13;;;23.00;36.70;;;;;;5093504;28;20426;-79
2021/03/04 05:19:18;;;;;;;0.85;0.70;;;23.00;36.60;;;;;;5090811;28;20057;-79
2021/03/04 05:21:43;;;;;;;0.90;0.63;;;23.20;36.60;;;;;;5073687;28;20044;-79
2021/03/04 05:24:09;;;;;;;0.95;0.82;;;23.20;36.50;;;;;;5091118;28;20077;-79
2021/03/04 05:26:36;;;;;;;1.08;0.60;;;23.30;36.40;;;;;;5091902;28;20491;-79
2021/03/04 05:29:03;;;;;;;2.33;1.15;;;23.30;36.30;;;;;;5086860;28;20024;-79
2021/03/04 05:31:29;;;;;;;1.23;0.80;;;23.40;36.30;;;;;;5084246;28;20044;-79
2021/03/04 05:33:54;;;;;;;0.70;0.70;;;23.40;36.20;;;;;;5090192;28;20077;-79
2021/03/04 05:36:20;;;;;;;0.30;0.30;;;23.40;36.20;;;;;;5091022;28;20027;-79
2021/03/04 05:38:45;;;;;;;2.50;1.23;;;23.40;36.10;;;;;;5090386;28;20270;-80
2021/03/04 05:41:11;;;;;;;3.92;1.17;;;23.40;36.10;;;;;;5093204;28;20391;-80
2021/03/04 05:43:37;;;;;;;1.95;0.85;;;23.50;36.10;;;;;;5075497;28;20024;-79
2021/03/04 05:46:02;;;;;;;0.73;0.73;;;23.50;36.10;;;;;;5090579;28;20047;-78
2021/03/04 05:48:28;;;;;;;5.95;1.83;;;23.50;36.00;;;;;;5092040;28;20032;-78
2021/03/04 05:50:54;;;;;;;0.57;0.57;;;23.50;36.00;;;;;;5091342;28;20028;-78
2021/03/04 05:53:20;;;;;;;0.57;0.57;;;23.50;36.00;;;;;;5084656;28;20078;-78
2021/03/04 05:55:46;;;;;;;1.42;0.80;;;23.60;36.10;;;;;;5065768;28;20028;-77
2021/03/04 05:58:11;;;;;;;1.80;0.95;;;23.60;36.00;;;;;;5085316;28;20035;-78
2021/03/04 06:00:38;;;;;;;0.30;0.30;;;23.60;36.00;;;;;;5086688;28;20036;-79
2021/03/04 06:03:05;;;;;;;0.68;0.57;;;23.60;36.70;;;;;;5074011;28;21458;-80
2021/03/04 06:05:47;;;;;;;10.63;1.50;;;23.60;36.10;;;;;;5089465;28;20526;-79
2021/03/04 06:08:13;;;;;;;0.43;0.40;;;23.60;36.00;;;;;;5089256;28;20063;-79
2021/03/04 06:10:38;;;;;;;1.35;0.60;;;23.60;36.10;;;;;;5089617;28;20843;-80
2021/03/04 06:13:05;;;;;;;1.25;0.80;;;23.60;36.20;;;;;;5087785;28;20191;-81
2021/03/04 06:15:31;;;;;;;1.17;1.08;;;23.60;36.20;;;;;;5087157;28;20062;-82
2021/03/04 06:18:00;;;;;;;1.75;0.75;;;23.60;36.20;;;;;;5089782;28;20060;-78
2021/03/04 06:20:55;;;;;;;2.85;1.40;;;23.60;36.20;;;;;;5090320;28;20487;-79
2021/03/04 06:23:30;;;;;;;1.58;0.65;;;23.60;36.30;;;;;;5041617;28;20118;-78
2021/03/04 06:25:56;;;;;;;3.17;1.83;;;23.60;36.30;;;;;;5038845;28;20067;-77
2021/03/04 06:28:30;;;;;;;1.25;0.43;;;23.60;36.30;;;;;;5045336;28;20487;-79
2021/03/04 06:30:56;;;;;;;2.20;0.95;;;23.50;36.30;;;;;;5049378;28;20071;-83
2021/03/04 06:33:21;;;;;;;0.80;0.65;;;23.50;36.40;;;;;;5040991;28;20057;-76
2021/03/04 06:35:47;;;;;;;5.38;1.40;;;23.60;36.50;;;;;;5048827;28;20036;-79
2021/03/04 06:38:15;;;;;;;0.93;0.57;;;23.50;36.40;;;;;;5049879;28;20025;-82
2021/03/04 06:40:41;;;;;;;0.30;0.30;;;23.60;36.40;;;;;;5049814;28;20075;-78
2021/03/04 06:43:07;;;;;;;3.05;1.08;;;23.60;36.50;;;;;;5048112;28;20037;-78
2021/03/04 06:45:34;;;;;;;3.00;1.25;;;23.60;36.50;;;;;;5032821;28;20532;-78
2021/03/04 06:48:12;;;;;;;4.55;1.30;;;23.60;36.40;;;;;;5034397;28;20037;-78
2021/03/04 06:50:47;;;;;;;9.63;1.35;;;23.60;36.40;;;;;;5039557;28;20520;-78
2021/03/04 06:53:17;;;;;;;2.75;1.05;;;23.60;36.50;;;;;;5031819;28;20102;-78
2021/03/04 06:56:06;;;;;;;1.23;0.40;;;23.60;36.50;;;;;;5026248;28;20045;-77
2021/03/04 06:58:35;;;;;;;1.67;0.68;;;23.60;36.50;;;;;;5045540;28;20073;-78
2021/03/04 07:01:14;;;;;;;0.77;0.75;;;23.70;36.60;;;;;;5088191;28;20111;-78
2021/03/04 07:03:47;;;;;;;4.85;2.33;;;23.70;36.50;;;;;;5072957;28;20123;-77
2021/03/04 07:06:14;;;;;;;4.78;1.27;;;23.70;36.40;;;;;;5088607;28;20026;-77
2021/03/04 07:08:44;;;;;;;2.13;1.02;;;23.70;36.30;;;;;;5089322;28;20044;-78
2021/03/04 07:11:11;;;;;;;1.33;0.82;;;23.70;36.40;;;;;;5069368;28;20035;-78
2021/03/04 07:13:38;;;;;;;2.75;0.40;;;23.70;36.40;;;;;;5081795;28;20495;-76
2021/03/04 07:16:08;;;;;;;0.95;0.60;;;23.70;36.40;;;;;;5085388;28;20020;-76
2021/03/04 07:18:46;;;;;;;2.75;1.23;;;23.70;36.30;;;;;;5071534;28;20456;-74
2021/03/04 07:21:16;;;;;;;2.05;1.30;;;23.70;36.40;;;;;;5089131;28;20016;-81
2021/03/04 07:23:42;;;;;;;4.47;1.35;;;23.70;36.40;;;;;;5089601;28;20024;-80
2021/03/04 07:26:08;;;;;;;4.07;1.45;;;23.70;36.30;;;;;;5065466;28;20039;-81
2021/03/04 07:28:41;;;;;;;3.45;1.23;;;23.70;36.40;;;;;;5075787;28;20052;-82
2021/03/04 07:31:07;;;;;;;1.70;0.60;;;23.60;36.50;;;;;;5088579;28;20100;-83
2021/03/04 07:33:34;;;;;;;3.13;1.77;;;23.60;36.70;;;;;;5092267;28;20046;-88
2021/03/04 07:36:13;;;;;;;4.20;1.73;;;23.60;36.80;;;;;;5092037;28;20039;-86
2021/03/04 07:38:39;;;;;;;1.45;0.77;;;23.60;36.90;;;;;;5093357;28;20020;-90
2021/03/04 07:41:12;;;;;;;5.07;2.45;;;23.60;36.90;;;;;;5091429;28;20032;-87
2021/03/04 07:43:50;;;;;;;3.55;1.58;;;23.60;37.00;;;;;;5087405;28;20527;-89
2021/03/04 07:46:28;;;;;;;5.05;2.88;;;23.60;37.10;;;;;;5084894;28;20031;-87
2021/03/04 07:48:54;;;;;;;6.75;2.88;;;23.60;37.20;;;;;;5091433;28;20028;-87
2021/03/04 07:51:20;;;;;;;3.53;1.30;;;23.60;37.40;;;;;;5062263;28;20515;-86
2021/03/04 07:53:46;;;;;;;7.75;1.80;;;23.50;37.50;;;;;;5084636;28;20502;-86
2021/03/04 07:56:30;;;;;;;5.97;2.80;;;23.50;37.50;;;;;;5088155;28;20035;-86
2021/03/04 07:59:11;;;;;;;1.85;1.52;;;23.50;37.50;;;;;;5080284;28;20131;-81
2021/03/04 08:01:37;;;;;;;2.28;1.38;;;23.50;37.50;;;;;;5098843;28;20059;-82
2021/03/04 08:04:03;;;;;;;2.28;1.15;;;23.40;37.40;;;;;;5098572;28;20052;-82
2021/03/04 08:06:42;;;;;;;2.03;1.30;;;23.50;37.50;;;;;;5091255;28;20085;-82
2021/03/04 08:09:08;;;;;;;3.38;0.95;;;23.40;37.40;;;;;;5091320;28;20527;-82
2021/03/04 08:11:33;;;;;;;2.63;1.30;;;23.40;37.40;;;;;;5091505;28;20052;-79
2021/03/04 08:13:59;;;;;;;1.92;1.13;;;23.40;37.50;;;;;;5094036;28;20101;-83
2021/03/04 08:16:24;;;;;;;3.22;1.50;;;23.40;37.40;;;;;;5088280;28;20035;-83
2021/03/04 08:18:54;;;;;;;0.77;0.77;;;23.50;37.40;;;;;;5068166;28;20520;-76
2021/03/04 08:21:20;;;;;;;2.85;1.58;;;23.60;37.10;;;;;;5095159;28;20021;-81
2021/03/04 08:23:45;;;;;;;1.77;1.35;;;23.60;36.90;;;;;;5087455;28;20039;-84
2021/03/04 08:26:23;;;;;;;3.38;0.75;;;23.70;36.90;;;;;;5089739;28;20539;-87
2021/03/04 08:28:49;;;;;;;2.20;0.68;;;23.70;36.70;;;;;;5088627;28;20503;-89
2021/03/04 08:31:15;;;;;;;1.42;0.88;;;23.70;36.70;;;;;;5102199;28;20044;-88
2021/03/04 08:33:40;;;;;;;2.60;1.15;;;23.70;36.80;;;;;;5078604;28;20047;-85
2021/03/04 08:36:06;;;;;;;4.22;1.55;;;23.70;36.90;;;;;;5086793;28;20024;-85
2021/03/04 08:38:49;;;;;;;0.77;0.60;;;23.80;37.20;;;;;;5081113;28;20427;-84
2021/03/04 08:41:19;;;;;;;1.48;1.15;;;23.70;37.00;;;;;;5095029;28;20500;-84
2021/03/04 08:43:45;;;;;;;1.27;0.90;;;23.70;37.10;;;;;;5076894;28;20440;-85
2021/03/04 08:46:11;;;;;;;0.80;0.80;;;23.70;37.20;;;;;;5093820;28;20029;-85
2021/03/04 08:48:43;;;;;;;1.95;1.52;;;23.60;37.20;;;;;;5094431;28;20046;-90
2021/03/04 08:51:08;;;;;;;5.85;1.40;;;23.70;37.30;;;;;;5090767;28;20020;-89
2021/03/04 08:53:34;;;;;;;2.15;1.20;;;23.60;37.40;;;;;;5079997;28;20024;-86
2021/03/04 08:56:02;;;;;;;3.97;1.83;;;23.60;38.20;;;;;;5092242;28;20036;-85
2021/03/04 08:58:31;;;;;;;1.27;0.95;;;23.60;37.50;;;;;;5086908;28;20038;-81
2021/03/04 09:01:01;;;;;;;3.55;1.63;;;23.60;37.50;;;;;;5091697;28;20507;-80
2021/03/04 09:03:28;;;;;;;1.30;0.90;;;23.60;37.40;;;;;;5093536;28;20115;-85
2021/03/04 09:06:13;;;;;;;3.83;2.25;;;23.60;37.50;;;;;;5071801;28;20539;-84
2021/03/04 09:08:46;;;;;;;2.53;1.60;;;23.60;37.60;;;;;;5093822;28;20448;-86
2021/03/04 09:11:29;;;;;;;1.33;1.17;;;23.60;37.60;;;;;;5091557;28;20081;-83
2021/03/04 09:14:05;;;;;;;1.42;1.13;;;23.60;37.70;;;;;;5093626;28;20413;-87
2021/03/04 09:16:49;;;;;;;;;;;23.60;37.70;;;;;;5092059;28;20039;-87
2021/03/04 09:19:25;;;;;;;1.27;1.10;;;23.60;37.70;;;;;;5080484;28;19908;-87
2021/03/04 09:21:50;;;;;;;;;;;23.60;37.70;;;;;;5090232;28;20017;-87
2021/03/04 09:24:16;;;;;;;6.13;0.90;;;23.60;37.70;;;;;;5082031;28;19914;-86
2021/03/04 09:26:42;;;;;;;1.45;0.80;;;23.60;37.60;;;;;;5091330;28;20127;-80
2021/03/04 09:29:07;;;;;;;2.78;1.67;;;23.60;37.60;;;;;;5081319;28;20032;-79
2021/03/04 09:31:33;;;;;;;4.50;0.93;;;23.60;37.60;;;;;;5089143;28;20400;-80
2021/03/04 09:34:01;;;;;;;0.40;0.40;;;23.60;37.60;;;;;;5092251;28;20031;-80
2021/03/04 09:36:26;;;;;;;1.38;1.17;;;23.60;37.60;;;;;;5083028;28;20051;-79
2021/03/04 09:38:54;;;;;;;1.95;1.13;;;23.60;37.60;;;;;;5103045;28;20051;-77
2021/03/04 09:41:20;;;;;;;2.42;0.95;;;23.50;37.60;;;;;;5106367;28;20015;-77
2021/03/04 09:43:55;;;;;;;2.60;0.93;;;23.60;37.60;;;;;;5096035;28;20115;-81
2021/03/04 09:46:32;;;;;;;0.43;0.43;;;23.60;37.50;;;;;;5075397;28;20024;-85
2021/03/04 09:49:17;;;;;;;1.52;1.05;;;23.50;37.50;;;;;;5086942;28;20077;-85
2021/03/04 09:51:45;;;;;;;3.47;1.77;;;23.50;37.50;;;;;;5078491;28;20033;-85
2021/03/04 09:54:10;;;;;;;1.95;0.90;;;23.50;37.50;;;;;;5082093;28;20039;-79
2021/03/04 09:56:36;;;;;;;5.38;1.80;;;23.50;37.50;;;;;;5090414;28;20415;-77
2021/03/04 09:59:02;;;;;;;1.90;1.60;;;23.50;37.60;;;;;;5082665;28;20434;-74
2021/03/04 10:01:28;;;;;;;3.28;2.08;;;23.50;37.60;;;;;;5081794;28;20027;-80
2021/03/04 10:03:59;;;;;;;3.35;1.42;;;23.50;37.50;;;;;;5091852;28;20437;-81
2021/03/04 10:06:25;;;;;;;1.95;0.85;;;23.50;37.50;;;;;;5088530;28;20361;-77
2021/03/04 10:08:54;;;;;;;3.03;1.58;;;23.50;37.60;;;;;;5084692;28;20051;-79
2021/03/04 10:11:22;;;;;;;1.00;0.50;;;23.50;37.50;;;;;;5091557;28;20031;-82
2021/03/04 10:13:47;;;;;;;1.45;0.88;;;23.50;37.50;;;;;;5073346;28;20036;-79
2021/03/04 10:16:13;;;;;;;0.98;0.68;;;23.50;37.50;;;;;;5090865;28;20028;-77
2021/03/04 10:18:48;;;;;;;4.38;1.42;;;23.50;37.50;;;;;;5091279;28;20047;-78
2021/03/04 10:21:17;;;;;;;1.70;1.42;;;23.50;37.50;;;;;;5093839;28;20434;-79
2021/03/04 10:23:45;;;;;;;3.25;1.67;;;23.50;37.50;;;;;;5089293;28;20063;-76
2021/03/04 10:26:11;;;;;;;3.22;1.60;;;23.50;37.40;;;;;;5091126;28;20043;-76
2021/03/04 10:28:37;;;;;;;2.25;1.05;;;23.40;37.40;;;;;;5084857;28;20032;-78
2021/03/04 10:31:02;;;;;;;1.60;1.10;;;23.40;37.40;;;;;;5087422;28;20039;-83
2021/03/04 10:33:28;;;;;;;2.28;1.65;;;23.40;37.40;;;;;;5090107;28;20040;-86
2021/03/04 10:35:54;;;;;;;1.67;0.60;;;23.40;37.40;;;;;;5092114;28;20028;-87
2021/03/04 10:41:43;;;;;;;2.05;1.33;;;23.40;37.40;;;;;;5094260;28;20107;-88
2021/03/04 10:44:09;;;;;;;2.85;1.42;;;23.40;37.40;;;;;;5095665;28;20073;-87
2021/03/04 10:46:35;;;;;;;1.83;1.13;;;23.40;37.40;;;;;;5091475;28;20024;-86
2021/03/04 10:49:01;;;;;;;0.50;0.50;;;23.40;37.40;;;;;;5073766;28;20166;-85
2021/03/04 10:51:27;;;;;;;1.35;0.55;;;23.40;37.40;;;;;;5081748;28;20043;-84
2021/03/04 10:53:52;;;;;;;1.27;0.57;;;23.40;37.40;;;;;;5073689;28;20032;-86
2021/03/04 10:56:18;;;;;;;1.52;0.98;;;23.40;37.40;;;;;;5084936;28;20085;-86
2021/03/04 10:58:44;;;;;;;0.73;0.60;;;23.40;37.40;;;;;;5095008;28;20061;-88
2021/03/04 11:01:09;;;;;;;1.38;1.08;;;23.40;37.40;;;;;;5095378;28;20016;-89
2021/03/04 11:03:35;;;;;;;5.25;0.90;;;23.40;37.40;;;;;;5092322;28;20144;-88
2021/03/04 11:06:00;;;;;;;2.65;1.60;;;23.40;37.40;;;;;;5090168;28;20020;-87
2021/03/04 11:08:26;;;;;;;0.50;0.25;;;23.40;37.30;;;;;;5075731;28;22020;-83
2021/03/04 11:10:51;;;;;;;1.33;1.23;;;23.40;37.30;;;;;;5086551;28;20032;-84
2021/03/04 11:13:17;;;;;;;2.72;0.52;;;23.40;37.30;;;;;;5072272;28;20038;-83
2021/03/04 11:15:43;;;;;;;1.17;0.95;;;23.40;37.40;;;;;;5090827;28;20433;-80
2021/03/04 11:18:09;;;;;;;3.30;1.25;;;23.40;37.40;;;;;;5088646;28;20035;-81
2021/03/04 11:20:35;;;;;;;0.52;0.52;;;23.50;37.20;;;;;;5088437;28;20028;-83
2021/03/04 11:23:00;;;;;;;1.35;0.80;;;23.60;37.00;;;;;;5082071;28;20480;-83
2021/03/04 11:25:26;;;;;;;1.90;0.93;;;23.70;36.90;;;;;;5087865;28;20043;-83
2021/03/04 11:27:51;;;;;;;1.05;0.60;;;23.70;36.70;;;;;;5090348;28;20086;-82
2021/03/04 11:30:18;;;;;;;4.15;1.50;;;23.80;36.60;;;;;;5072319;28;20500;-80
2021/03/04 11:32:43;;;;;;;2.08;1.48;;;23.80;36.50;;;;;;5097005;28;20075;-81
2021/03/04 11:35:09;;;;;;;2.97;0.75;;;23.80;36.40;;;;;;5097711;28;20062;-81
2021/03/04 11:37:35;;;;;;;3.60;1.40;;;23.80;36.40;;;;;;5089242;28;20044;-82
2021/03/04 11:40:00;;;;;;;1.17;1.02;;;23.90;36.50;;;;;;5096746;28;20032;-81
2021/03/04 11:42:26;;;;;;;2.38;1.30;;;23.80;36.40;;;;;;5095004;28;20031;-81
2021/03/04 11:44:52;;;;;;;1.70;1.17;;;23.90;36.50;;;;;;5098865;28;20024;-84
2021/03/04 11:47:17;;;;;;;1.23;0.30;;;23.80;36.50;;;;;;5099005;28;20032;-83
2021/03/04 11:49:43;;;;;;;0.63;0.55;;;23.80;36.50;;;;;;5099468;28;20020;-84
2021/03/04 11:52:09;;;;;;;1.67;1.00;;;23.80;36.50;;;;;;5096868;28;20039;-83
2021/03/04 11:54:34;;;;;;;0.85;0.60;;;23.80;36.60;;;;;;5078753;28;20499;-80
2021/03/04 11:57:00;;;;;;;1.00;0.75;;;23.80;36.60;;;;;;5095172;28;20020;-80
2021/03/04 11:59:26;;;;;;;1.95;0.88;;;23.70;36.70;;;;;;5095389;28;20081;-80
2021/03/04 12:01:51;;;;;;;0.45;0.45;;;23.70;36.70;;;;;;5102739;28;20427;-80
2021/03/04 12:04:17;;;;;;;1.10;1.00;;;23.70;36.70;;;;;;5094556;28;20445;-79
2021/03/04 12:06:42;;;;;;;1.23;0.85;;;23.70;36.70;;;;;;5095298;28;20110;-83
2021/03/04 12:09:08;;;;;;;1.20;0.85;;;23.70;36.80;;;;;;5097289;28;20023;-82
2021/03/04 12:11:33;;;;;;;1.98;1.20;;;23.70;36.80;;;;;;5105931;28;20044;-81
2021/03/04 12:13:59;;;;;;;1.13;0.45;;;23.70;36.80;;;;;;5095113;28;20399;-81
2021/03/04 12:16:25;;;;;;;2.38;0.77;;;23.70;36.80;;;;;;5091646;28;20107;-81
2021/03/04 12:18:56;;;;;;;4.80;0.52;;;23.60;36.80;;;;;;5093659;28;20107;-79
2021/03/04 12:21:23;;;;;;;1.05;0.60;;;23.60;36.80;;;;;;5095076;28;20027;-78
2021/03/04 12:23:49;;;;;;;1.00;0.55;;;23.70;36.70;;;;;;5093928;28;20079;-78
2021/03/04 12:27:01;;;;;;;0.35;0.35;;;23.70;36.60;;;;;;5093421;28;20036;-78
2021/03/04 12:29:27;;;;;;;2.03;1.02;;;23.70;36.70;;;;;;5090113;28;20020;-78
2021/03/04 12:31:53;;;;;;;1.38;0.95;;;23.70;36.60;;;;;;5092034;28;20044;-78
2021/03/04 12:34:18;;;;;;;0.65;0.28;;;23.70;36.60;;;;;;5095045;28;20066;-78
2021/03/04 12:36:44;;;;;;;2.65;1.45;;;23.70;36.50;;;;;;5094161;28;20024;-78
2021/03/04 12:39:11;;;;;;;1.13;0.85;;;23.70;36.50;;;;;;5067944;28;20490;-78
2021/03/04 12:41:36;;;;;;;1.20;0.40;;;23.70;36.50;;;;;;5092167;28;20028;-78
2021/03/04 12:44:02;;;;;;;0.90;0.45;;;23.60;36.50;;;;;;5092225;28;20131;-78
2021/03/04 12:46:27;;;;;;;5.18;0.85;;;23.60;36.50;;;;;;5093833;28;20514;-82
2021/03/04 12:48:53;;;;;;;2.85;0.82;;;23.60;36.40;;;;;;5094382;28;20024;-81